Wan Hai 508 — 9VJJ6 — position and weather

sailwx.info

Track history (hours):
 
Tides and Currents Weather Stations Pressure Air Temp Water Temp Dewpoint Dewpoint Depression Visibility Wind Speed Wind Dir Waves Ship Positions

Wan Hai 508

Last reported at 2014-Aug-19 06:06 UTC. Time now 2014-Sep-01 23:31 UTC.
Position N 01°12' E 103°38'.
Warning: this ship's position is 13 days out of date.

Length 269 m; draft 12.5 m.

Type: Ship. MMSI: 565567000.

Date/timePositionNaut miles runAvg speedWind from/ knotsBaromVisibWave heightAir tempDewpointWater temp
2014-Aug-19 06:06N 01°12' E 103°38'5 9.4
2014-Aug-19 05:34N 01°14' E 103°43'4 4.1
2014-Aug-19 04:33N 01°17' E 103°46'0 0.0
2014-Aug-19 03:30N 01°17' E 103°46'0 0.0
2014-Aug-19 02:33N 01°17' E 103°46'0 0.0
2014-Aug-19 01:33N 01°17' E 103°46'0 0.0
2014-Aug-19 00:33N 01°17' E 103°46'0 0.0
2014-Aug-18 22:27N 01°17' E 103°46'0 0.0
2014-Aug-18 21:21N 01°17' E 103°46'0 0.0
2014-Aug-18 20:27N 01°17' E 103°46'0 0.0
2014-Aug-18 19:33N 01°17' E 103°46'0 0.0
2014-Aug-18 18:33N 01°17' E 103°46'0 0.0
2014-Aug-18 17:27N 01°17' E 103°46'0 0.0
2014-Aug-18 16:33N 01°17' E 103°46'0 0.0
2014-Aug-18 15:33N 01°17' E 103°46'1 0.8
2014-Aug-18 14:33N 01°16' E 103°45'8 8.1
2014-Aug-18 13:33N 01°13' E 103°53'8 8.0
2014-Aug-18 12:34N 01°16' E 104°00'12 9.9
2014-Aug-18 11:19N 01°17' E 104°13'  
2014-Aug-14 14:20N 22°10' E 114°11'911.0
2014-Aug-14 13:29N 22°18' E 114°06'2 0.2
2014-Aug-14 02:31N 22°20' E 114°07'3 2.5
2014-Aug-14 01:24N 22°20' E 114°04'0 0.1
2014-Aug-14 00:23N 22°20' E 114°04'0 0.3
2014-Aug-13 23:29N 22°20' E 114°04'0 0.0
2014-Aug-13 22:29N 22°20' E 114°04'0 0.1
2014-Aug-13 21:29N 22°20' E 114°04'0 0.0
2014-Aug-13 20:11N 22°20' E 114°04'0 0.0
2014-Aug-13 19:23N 22°20' E 114°04'0 0.1
2014-Aug-13 18:29N 22°20' E 114°04'0 0.2
2014-Aug-13 17:17N 22°20' E 114°04'0 0.0
2014-Aug-13 15:29N 22°20' E 114°04'0 0.1
2014-Aug-13 14:23N 22°20' E 114°04'0 0.0
2014-Aug-13 10:23N 22°20' E 114°04'0 0.0
2014-Aug-13 09:29N 22°20' E 114°04'0 0.2
2014-Aug-13 08:17N 22°20' E 114°04'0 0.1
2014-Aug-13 07:18N 22°20' E 114°04'0 0.1
2014-Aug-13 06:30N 22°20' E 114°04'0 0.1
2014-Aug-13 05:29N 22°20' E 114°04'0 0.1
2014-Aug-13 04:29N 22°20' E 114°04'0 0.0
2014-Aug-13 01:17N 22°20' E 114°04'0 0.1
2014-Aug-13 00:17N 22°20' E 114°04'0 0.2
2014-Aug-12 22:17N 22°20' E 114°04'0 0.1
2014-Aug-12 21:29N 22°20' E 114°04'0 0.0
2014-Aug-12 20:29N 22°20' E 114°04'0 0.0
2014-Aug-12 19:29N 22°20' E 114°04'0 0.1
2014-Aug-12 18:29N 22°20' E 114°04'0 0.3
2014-Aug-12 17:32N 22°20' E 114°05'9 7.7
2014-Aug-12 16:19N 22°22' E 113°55'6 7.3
2014-Aug-12 15:33N 22°28' E 113°54'0 0.3
2014-Aug-12 14:33N 22°27' E 113°54'0 0.0
2014-Aug-12 13:33N 22°27' E 113°54'0 0.0
2014-Aug-12 12:33N 22°27' E 113°54'0 0.0
2014-Aug-12 11:27N 22°27' E 113°54'0 0.0
2014-Aug-12 10:33N 22°27' E 113°54'0 0.0
2014-Aug-12 09:33N 22°27' E 113°54'0 0.0
2014-Aug-12 08:33N 22°27' E 113°54'0 0.0
2014-Aug-12 07:34N 22°27' E 113°54'0 0.0
2014-Aug-12 06:30N 22°27' E 113°54'0 0.0
2014-Aug-12 05:24N 22°27' E 113°54'0 0.0
2014-Aug-12 04:30N 22°27' E 113°54'7 7.2
2014-Aug-12 03:32N 22°21' E 113°57'1110.4
2014-Aug-12 02:29N 22°16' E 114°07'17413.2
2014-Aug-11 13:19N 22°18' E 117°15'13917.8
2014-Aug-11 05:33N 22°30' E 119°44'1818.1
2014-Aug-11 04:33N 22°32' E 120°04'1515.1
2014-Aug-11 03:33N 22°33' E 120°20'1 0.5
2014-Aug-11 02:28N 22°33' E 120°20'0 0.0
2014-Aug-11 01:28N 22°33' E 120°20'0 0.1
2014-Aug-11 00:28N 22°33' E 120°20'0 0.1
2014-Aug-10 23:28N 22°33' E 120°20'0 0.0
2014-Aug-10 22:28N 22°33' E 120°20'0 0.0
2014-Aug-10 21:28N 22°33' E 120°20'0 0.0
2014-Aug-10 20:28N 22°33' E 120°20'0 0.0
2014-Aug-10 19:16N 22°33' E 120°20'0 0.0
2014-Aug-10 18:28N 22°33' E 120°20'0 0.0
2014-Aug-10 17:22N 22°33' E 120°20'3 3.5
2014-Aug-10 16:33N 22°32' E 120°17'3 3.1
2014-Aug-10 15:33N 22°34' E 120°14'0 0.0
2014-Aug-10 14:30N 22°34' E 120°14'0 0.0
2014-Aug-10 13:30N 22°34' E 120°14'0 0.1
2014-Aug-10 12:24N 22°34' E 120°14'0 0.0
2014-Aug-10 11:30N 22°34' E 120°14'0 0.0
2014-Aug-10 10:18N 22°34' E 120°14'0 0.0
2014-Aug-10 08:30N 22°34' E 120°14'  
Track history (hours):
 
Tides and Currents Weather Stations Pressure Air Temp Water Temp Dewpoint Dewpoint Depression Visibility Wind Speed Wind Dir Waves Ship Positions

Wan Hai 508

Last reported at 2014-Aug-19 06:06 UTC. Time now 2014-Sep-01 23:31 UTC.
Position N 01°12' E 103°38'.
Warning: this ship's position is 13 days out of date.

Length 269 m; draft 12.5 m.

Type: Ship. MMSI: 565567000.

Date/timePositionNaut miles runAvg speedWind from/ knotsBaromVisibWave heightAir tempDewpointWater temp
2014-Aug-19 06:06N 01°12' E 103°38'5 9.4
2014-Aug-19 05:34N 01°14' E 103°43'4 4.1
2014-Aug-19 04:33N 01°17' E 103°46'0 0.0
2014-Aug-19 03:30N 01°17' E 103°46'0 0.0
2014-Aug-19 02:33N 01°17' E 103°46'0 0.0
2014-Aug-19 01:33N 01°17' E 103°46'0 0.0
2014-Aug-19 00:33N 01°17' E 103°46'0 0.0
2014-Aug-18 22:27N 01°17' E 103°46'0 0.0
2014-Aug-18 21:21N 01°17' E 103°46'0 0.0
2014-Aug-18 20:27N 01°17' E 103°46'0 0.0
2014-Aug-18 19:33N 01°17' E 103°46'0 0.0
2014-Aug-18 18:33N 01°17' E 103°46'0 0.0
2014-Aug-18 17:27N 01°17' E 103°46'0 0.0
2014-Aug-18 16:33N 01°17' E 103°46'0 0.0
2014-Aug-18 15:33N 01°17' E 103°46'1 0.8
2014-Aug-18 14:33N 01°16' E 103°45'8 8.1
2014-Aug-18 13:33N 01°13' E 103°53'8 8.0
2014-Aug-18 12:34N 01°16' E 104°00'12 9.9
2014-Aug-18 11:19N 01°17' E 104°13'  
2014-Aug-14 14:20N 22°10' E 114°11'911.0
2014-Aug-14 13:29N 22°18' E 114°06'2 0.2
2014-Aug-14 02:31N 22°20' E 114°07'3 2.5
2014-Aug-14 01:24N 22°20' E 114°04'0 0.1
2014-Aug-14 00:23N 22°20' E 114°04'0 0.3
2014-Aug-13 23:29N 22°20' E 114°04'0 0.0
2014-Aug-13 22:29N 22°20' E 114°04'0 0.1
2014-Aug-13 21:29N 22°20' E 114°04'0 0.0
2014-Aug-13 20:11N 22°20' E 114°04'0 0.0
2014-Aug-13 19:23N 22°20' E 114°04'0 0.1
2014-Aug-13 18:29N 22°20' E 114°04'0 0.2
2014-Aug-13 17:17N 22°20' E 114°04'0 0.0
2014-Aug-13 15:29N 22°20' E 114°04'0 0.1
2014-Aug-13 14:23N 22°20' E 114°04'0 0.0
2014-Aug-13 10:23N 22°20' E 114°04'0 0.0
2014-Aug-13 09:29N 22°20' E 114°04'0 0.2
2014-Aug-13 08:17N 22°20' E 114°04'0 0.1
2014-Aug-13 07:18N 22°20' E 114°04'0 0.1
2014-Aug-13 06:30N 22°20' E 114°04'0 0.1
2014-Aug-13 05:29N 22°20' E 114°04'0 0.1
2014-Aug-13 04:29N 22°20' E 114°04'0 0.0
2014-Aug-13 01:17N 22°20' E 114°04'0 0.1
2014-Aug-13 00:17N 22°20' E 114°04'0 0.2
2014-Aug-12 22:17N 22°20' E 114°04'0 0.1
2014-Aug-12 21:29N 22°20' E 114°04'0 0.0
2014-Aug-12 20:29N 22°20' E 114°04'0 0.0
2014-Aug-12 19:29N 22°20' E 114°04'0 0.1
2014-Aug-12 18:29N 22°20' E 114°04'0 0.3
2014-Aug-12 17:32N 22°20' E 114°05'9 7.7
2014-Aug-12 16:19N 22°22' E 113°55'6 7.3
2014-Aug-12 15:33N 22°28' E 113°54'0 0.3
2014-Aug-12 14:33N 22°27' E 113°54'0 0.0
2014-Aug-12 13:33N 22°27' E 113°54'0 0.0
2014-Aug-12 12:33N 22°27' E 113°54'0 0.0
2014-Aug-12 11:27N 22°27' E 113°54'0 0.0
2014-Aug-12 10:33N 22°27' E 113°54'0 0.0
2014-Aug-12 09:33N 22°27' E 113°54'0 0.0
2014-Aug-12 08:33N 22°27' E 113°54'0 0.0
2014-Aug-12 07:34N 22°27' E 113°54'0 0.0
2014-Aug-12 06:30N 22°27' E 113°54'0 0.0
2014-Aug-12 05:24N 22°27' E 113°54'0 0.0
2014-Aug-12 04:30N 22°27' E 113°54'7 7.2
2014-Aug-12 03:32N 22°21' E 113°57'1110.4
2014-Aug-12 02:29N 22°16' E 114°07'17413.2
2014-Aug-11 13:19N 22°18' E 117°15'13917.8
2014-Aug-11 05:33N 22°30' E 119°44'1818.1
2014-Aug-11 04:33N 22°32' E 120°04'1515.1
2014-Aug-11 03:33N 22°33' E 120°20'1 0.5
2014-Aug-11 02:28N 22°33' E 120°20'0 0.0
2014-Aug-11 01:28N 22°33' E 120°20'0 0.1
2014-Aug-11 00:28N 22°33' E 120°20'0 0.1
2014-Aug-10 23:28N 22°33' E 120°20'0 0.0
2014-Aug-10 22:28N 22°33' E 120°20'0 0.0
2014-Aug-10 21:28N 22°33' E 120°20'0 0.0
2014-Aug-10 20:28N 22°33' E 120°20'0 0.0
2014-Aug-10 19:16N 22°33' E 120°20'0 0.0
2014-Aug-10 18:28N 22°33' E 120°20'0 0.0
2014-Aug-10 17:22N 22°33' E 120°20'3 3.5
2014-Aug-10 16:33N 22°32' E 120°17'3 3.1
2014-Aug-10 15:33N 22°34' E 120°14'0 0.0
2014-Aug-10 14:30N 22°34' E 120°14'0 0.0
2014-Aug-10 13:30N 22°34' E 120°14'0 0.1
2014-Aug-10 12:24N 22°34' E 120°14'0 0.0
2014-Aug-10 11:30N 22°34' E 120°14'0 0.0
2014-Aug-10 10:18N 22°34' E 120°14'0 0.0
2014-Aug-10 08:30N 22°34' E 120°14'  

Dump ship's entire track history